createdAt,value
2022-09-18T00:01:47.554Z,2.50
2022-09-18T00:05:12.413Z,2.80
2022-09-18T00:08:38.766Z,2.90
2022-09-18T00:12:06.107Z,3.27
2022-09-18T00:15:30.121Z,3.90
2022-09-18T00:18:55.037Z,3.07
2022-09-18T00:22:19.183Z,2.77
2022-09-18T00:25:44.845Z,2.60
2022-09-18T00:29:12.875Z,2.60
2022-09-18T00:32:37.497Z,2.73
2022-09-18T00:36:04.381Z,2.70
2022-09-18T00:39:28.963Z,3.10
2022-09-18T00:42:53.285Z,2.97
2022-09-18T00:46:27.792Z,2.97
2022-09-18T00:49:58.388Z,3.20
2022-09-18T00:53:23.444Z,3.13
2022-09-18T00:56:50.350Z,3.93
2022-09-18T01:00:15.586Z,3.67
2022-09-18T01:03:42.935Z,2.70
2022-09-18T01:07:13.048Z,2.90
2022-09-18T01:10:51.929Z,3.10
2022-09-18T01:14:31.654Z,2.90
2022-09-18T01:18:06.663Z,3.93
2022-09-18T01:21:39.641Z,3.20
2022-09-18T01:25:19.119Z,3.10
2022-09-18T01:28:51.227Z,3.43
2022-09-18T01:32:24.387Z,3.17
2022-09-18T01:35:53.861Z,3.17
2022-09-18T01:39:23.422Z,2.87
2022-09-18T01:42:51.461Z,3.33
2022-09-18T01:46:21.401Z,3.00
2022-09-18T01:49:53.519Z,2.93
2022-09-18T01:53:22.919Z,3.13
2022-09-18T01:56:51.496Z,2.73
2022-09-18T02:00:17.560Z,2.67
2022-09-18T02:03:48.748Z,2.77
2022-09-18T02:07:19.622Z,2.90
2022-09-18T02:10:48.824Z,3.17
2022-09-18T02:14:17.668Z,3.27
2022-09-18T02:18:21.349Z,3.10
2022-09-18T02:21:50.628Z,3.47
2022-09-18T02:25:20.369Z,4.10
2022-09-18T02:28:47.543Z,3.83
2022-09-18T02:32:11.850Z,3.30
2022-09-18T02:35:43.899Z,2.87
2022-09-18T02:39:24.528Z,3.30
2022-09-18T02:43:01.035Z,3.00
2022-09-18T02:46:35.624Z,2.67
2022-09-18T02:50:08.181Z,3.07
2022-09-18T02:53:37.319Z,2.70
2022-09-18T02:57:11.013Z,2.93
2022-09-18T03:00:36.741Z,2.73
2022-09-18T03:04:15.207Z,3.23
2022-09-18T03:08:07.370Z,2.87
2022-09-18T03:11:31.833Z,3.10
2022-09-18T03:14:59.013Z,2.80
2022-09-18T03:18:24.038Z,3.20
2022-09-18T03:21:51.317Z,2.80
2022-09-18T03:25:16.812Z,2.73
2022-09-18T03:28:41.451Z,3.30
2022-09-18T03:32:10.147Z,3.00
2022-09-18T03:35:42.190Z,3.30
2022-09-18T03:39:08.177Z,3.57
2022-09-18T03:42:32.808Z,4.17
2022-09-18T03:45:58.741Z,4.47
2022-09-18T03:49:26.744Z,4.73
2022-09-18T03:52:52.326Z,4.43
2022-09-18T03:56:38.475Z,5.27
2022-09-18T04:00:03.087Z,4.53
2022-09-18T04:03:40.327Z,4.23
2022-09-18T04:07:26.587Z,5.00
2022-09-18T04:11:11.403Z,4.90
2022-09-18T04:14:35.717Z,5.30
2022-09-18T04:18:00.102Z,5.43
2022-09-18T04:21:26.845Z,5.17
2022-09-18T04:24:54.022Z,4.77
2022-09-18T04:28:19.218Z,4.33
2022-09-18T04:31:45.841Z,3.67
2022-09-18T04:35:15.045Z,3.90
2022-09-18T04:38:41.930Z,4.07
2022-09-18T04:42:10.357Z,4.20
2022-09-18T04:45:35.780Z,4.20
2022-09-18T04:49:01.365Z,4.03
2022-09-18T04:52:27.821Z,4.27
2022-09-18T04:55:52.902Z,4.00
2022-09-18T04:59:21.115Z,4.27
2022-09-18T05:02:45.839Z,4.60
2022-09-18T05:06:14.399Z,4.80
2022-09-18T05:09:38.998Z,5.07
2022-09-18T05:13:06.641Z,4.40
2022-09-18T05:16:39.606Z,5.47
2022-09-18T05:20:22.297Z,4.30
2022-09-18T05:23:47.253Z,5.10
2022-09-18T05:27:14.566Z,5.77
2022-09-18T05:30:39.007Z,5.40
2022-09-18T05:34:06.513Z,4.50
2022-09-18T05:37:32.194Z,4.17
2022-09-18T05:40:57.093Z,4.17
2022-09-18T05:44:21.551Z,3.80
2022-09-18T05:47:46.902Z,3.40
2022-09-18T05:51:14.509Z,4.10
2022-09-18T05:54:39.931Z,4.00
2022-09-18T05:58:08.950Z,4.17
2022-09-18T06:01:33.466Z,4.13
2022-09-18T06:05:13.881Z,4.20
2022-09-18T06:08:41.031Z,4.00
2022-09-18T06:12:07.152Z,4.43
2022-09-18T06:15:33.773Z,4.80
2022-09-18T06:18:58.089Z,4.70
2022-09-18T06:22:22.873Z,4.27
2022-09-18T06:25:52.204Z,4.13
2022-09-18T06:29:16.981Z,4.07
2022-09-18T06:33:04.439Z,4.23
2022-09-18T06:36:29.013Z,4.57
2022-09-18T06:40:14.215Z,5.10
2022-09-18T06:44:00.438Z,4.13
2022-09-18T06:47:30.785Z,4.47
2022-09-18T06:50:56.784Z,4.60
2022-09-18T06:54:22.351Z,4.63
2022-09-18T06:57:56.712Z,4.47
2022-09-18T07:01:23.738Z,3.83
2022-09-18T07:04:58.395Z,4.40
2022-09-18T07:08:23.198Z,4.30
2022-09-18T07:11:52.203Z,4.20
2022-09-18T07:15:20.018Z,3.83
2022-09-18T07:18:47.440Z,4.10
2022-09-18T07:22:12.032Z,4.30
2022-09-18T07:25:41.426Z,4.40
2022-09-18T07:29:10.111Z,4.13
2022-09-18T07:32:38.428Z,4.30
2022-09-18T07:36:12.354Z,3.97
2022-09-18T07:39:37.515Z,3.80
2022-09-18T07:43:21.008Z,4.20
2022-09-18T07:46:51.428Z,3.93
2022-09-18T07:50:16.398Z,3.87
2022-09-18T07:53:44.351Z,3.53
2022-09-18T07:57:09.589Z,3.20
2022-09-18T08:00:47.827Z,3.10
2022-09-18T08:04:13.465Z,3.23
2022-09-18T08:08:07.522Z,3.10
2022-09-18T08:11:55.742Z,3.10
2022-09-18T08:15:44.806Z,3.23
2022-09-18T08:19:28.618Z,2.70
2022-09-18T08:23:16.721Z,3.07
2022-09-18T08:26:45.218Z,2.30
2022-09-18T08:30:15.652Z,2.20
2022-09-18T08:33:42.579Z,2.23
2022-09-18T08:37:09.584Z,2.10
2022-09-18T08:41:07.838Z,2.00
2022-09-18T08:44:39.783Z,1.97
2022-09-18T08:48:14.932Z,2.50
2022-09-18T08:51:49.304Z,2.80
2022-09-18T08:55:24.271Z,2.90
2022-09-18T08:59:18.091Z,2.90
2022-09-18T09:02:50.212Z,2.80
2022-09-18T09:06:34.190Z,2.70
2022-09-18T09:10:14.053Z,3.20
2022-09-18T09:14:05.061Z,3.43
2022-09-18T09:17:43.485Z,3.40
2022-09-18T09:21:22.599Z,3.50
2022-09-18T09:25:04.359Z,3.87
2022-09-18T09:29:06.780Z,3.20
2022-09-18T09:33:01.306Z,3.43
2022-09-18T09:36:45.633Z,3.33
2022-09-18T09:40:19.140Z,3.03
2022-09-18T09:43:51.860Z,2.47
2022-09-18T09:47:31.479Z,2.70
2022-09-18T09:51:07.694Z,2.33
2022-09-18T09:54:38.125Z,2.37
2022-09-18T09:58:19.812Z,3.10
2022-09-18T10:01:53.620Z,2.50
2022-09-18T10:05:29.252Z,2.93
2022-09-18T10:09:06.371Z,4.00
2022-09-18T10:12:45.323Z,3.40
2022-09-18T10:16:16.785Z,2.87
2022-09-18T10:19:48.031Z,2.70
2022-09-18T10:23:20.431Z,2.20
2022-09-18T10:26:52.565Z,1.77
2022-09-18T10:30:22.278Z,1.53
2022-09-18T10:33:53.942Z,1.83
2022-09-18T10:37:43.729Z,2.40
2022-09-18T10:41:32.964Z,1.90
2022-09-18T10:45:02.227Z,2.10
2022-09-18T10:48:36.706Z,1.80
2022-09-18T10:52:28.822Z,1.73
2022-09-18T10:55:58.056Z,1.60
2022-09-18T10:59:38.973Z,2.20
2022-09-18T11:03:18.424Z,2.27
2022-09-18T11:06:49.901Z,1.90
2022-09-18T11:10:29.158Z,2.47
2022-09-18T11:13:59.745Z,3.00
2022-09-18T11:17:36.988Z,3.33
2022-09-18T11:21:06.689Z,3.43
2022-09-18T11:24:37.349Z,2.80
2022-09-18T11:28:25.603Z,2.37
2022-09-18T11:31:56.731Z,2.90
2022-09-18T11:35:26.013Z,1.70
2022-09-18T11:38:52.245Z,2.43
2022-09-18T11:42:21.451Z,1.90
2022-09-18T11:45:59.531Z,1.80
2022-09-18T11:49:33.500Z,1.20
2022-09-18T11:53:06.135Z,1.30
2022-09-18T11:56:40.838Z,1.20
2022-09-18T12:00:15.368Z,1.07
2022-09-18T12:03:49.666Z,1.20
2022-09-18T12:07:38.487Z,1.30
2022-09-18T12:11:17.800Z,1.73
2022-09-18T12:14:46.712Z,1.30
2022-09-18T12:18:26.028Z,1.40
2022-09-18T12:22:02.167Z,1.30
2022-09-18T12:25:40.011Z,1.37
2022-09-18T12:29:41.698Z,1.33
2022-09-18T12:33:26.592Z,1.10
2022-09-18T12:37:02.039Z,1.10
2022-09-18T12:40:39.626Z,1.37
2022-09-18T12:44:24.330Z,1.40
2022-09-18T12:48:09.157Z,1.80
2022-09-18T12:51:45.015Z,2.13
2022-09-18T12:55:25.630Z,2.10
2022-09-18T12:59:12.662Z,2.50
2022-09-18T13:02:51.504Z,1.60
2022-09-18T13:06:20.068Z,1.90
2022-09-18T13:09:54.128Z,1.80
2022-09-18T13:13:25.921Z,4.50
2022-09-18T13:16:55.773Z,1.87
2022-09-18T13:20:30.585Z,1.80
2022-09-18T13:23:41.002Z,1.90
2022-09-18T13:26:52.029Z,2.27
2022-09-18T13:30:00.836Z,3.60
2022-09-18T13:33:08.467Z,2.80
2022-09-18T13:36:15.229Z,2.50
2022-09-18T13:39:25.025Z,2.70
2022-09-18T13:42:37.913Z,3.17
2022-09-18T13:45:44.118Z,3.87
2022-09-18T13:48:56.122Z,3.03
2022-09-18T13:52:43.599Z,3.00
2022-09-18T13:55:53.757Z,3.47
2022-09-18T13:59:03.223Z,3.80
2022-09-18T14:02:27.487Z,3.70
2022-09-18T14:05:36.670Z,3.40
2022-09-18T14:08:43.737Z,3.70
2022-09-18T14:11:50.140Z,3.53
2022-09-18T14:15:06.160Z,3.77
2022-09-18T14:18:18.570Z,4.57
2022-09-18T14:21:32.086Z,3.70
2022-09-18T14:24:43.870Z,3.80
2022-09-18T14:27:58.017Z,2.90
2022-09-18T14:31:32.038Z,3.73
2022-09-18T14:34:42.307Z,3.53
2022-09-18T14:37:48.855Z,3.40
2022-09-18T14:41:01.309Z,3.13
2022-09-18T14:44:08.420Z,3.13
2022-09-18T14:47:23.873Z,3.67
2022-09-18T14:50:35.193Z,4.07
2022-09-18T14:53:47.058Z,3.77
2022-09-18T14:56:54.947Z,3.73
2022-09-18T15:00:03.549Z,3.67
2022-09-18T15:03:21.123Z,3.47
2022-09-18T15:06:33.538Z,3.73
2022-09-18T15:09:41.525Z,4.10
2022-09-18T15:12:49.272Z,4.77
2022-09-18T15:16:03.389Z,5.23
2022-09-18T15:19:20.844Z,5.27
2022-09-18T15:22:27.975Z,5.13
2022-09-18T15:25:38.859Z,4.37
2022-09-18T15:28:49.171Z,5.00
2022-09-18T15:31:58.522Z,4.00
2022-09-18T15:35:08.983Z,3.90
2022-09-18T15:38:20.825Z,4.63
2022-09-18T15:41:42.031Z,4.13
2022-09-18T15:45:22.032Z,4.13
2022-09-18T15:48:38.772Z,5.07
2022-09-18T15:51:48.553Z,6.10
2022-09-18T15:55:08.222Z,5.90
2022-09-18T15:58:34.807Z,5.70
2022-09-18T16:01:42.187Z,5.60
2022-09-18T16:04:49.750Z,5.73
2022-09-18T16:08:03.292Z,5.73
2022-09-18T16:11:32.692Z,5.90
2022-09-18T16:14:47.958Z,5.50
2022-09-18T16:18:04.167Z,5.90
2022-09-18T16:21:12.222Z,5.33
2022-09-18T16:24:30.144Z,5.57
2022-09-18T16:27:42.288Z,6.27
2022-09-18T16:30:52.795Z,6.10
2022-09-18T16:34:03.344Z,5.83
2022-09-18T16:37:14.085Z,6.00
2022-09-18T16:40:27.562Z,6.73
2022-09-18T16:43:36.109Z,6.60
2022-09-18T16:46:46.189Z,6.80
2022-09-18T16:49:54.649Z,6.70
2022-09-18T16:53:03.435Z,6.73
2022-09-18T16:56:17.349Z,6.67
2022-09-18T16:59:25.172Z,6.33
2022-09-18T17:02:31.986Z,6.70
2022-09-18T17:05:38.830Z,8.60
2022-09-18T17:08:46.923Z,8.03
2022-09-18T17:11:56.876Z,7.37
2022-09-18T17:15:04.742Z,5.97
2022-09-18T17:18:11.655Z,6.20
2022-09-18T17:21:19.501Z,6.07
2022-09-18T17:24:28.093Z,6.20
2022-09-18T17:27:43.708Z,5.50
2022-09-18T17:30:54.652Z,6.53
2022-09-18T17:34:03.220Z,6.23
2022-09-18T17:37:10.223Z,6.90
2022-09-18T17:40:17.701Z,7.00
2022-09-18T17:43:28.092Z,7.40
2022-09-18T17:46:36.000Z,6.93
2022-09-18T17:49:42.729Z,7.97
2022-09-18T17:52:50.241Z,6.37
2022-09-18T17:55:57.922Z,4.13
2022-09-18T17:59:12.037Z,3.70
2022-09-18T18:02:18.804Z,3.37
2022-09-18T18:05:26.937Z,3.80
2022-09-18T18:08:33.981Z,4.20
2022-09-18T18:11:44.537Z,4.60
2022-09-18T18:14:54.232Z,4.07
2022-09-18T18:18:03.480Z,4.80
2022-09-18T18:21:11.512Z,4.07
2022-09-18T18:24:21.221Z,4.77
2022-09-18T18:27:28.434Z,4.57
2022-09-18T18:30:39.388Z,5.10
2022-09-18T18:33:47.093Z,4.17
2022-09-18T18:36:55.461Z,5.00
2022-09-18T18:40:03.107Z,4.30
2022-09-18T18:43:15.644Z,4.60
2022-09-18T18:46:26.502Z,5.03
2022-09-18T18:49:34.500Z,4.50
2022-09-18T18:52:42.759Z,4.07
2022-09-18T18:55:52.119Z,5.23
2022-09-18T18:59:00.935Z,4.93
2022-09-18T19:02:12.339Z,4.80
2022-09-18T19:05:25.398Z,5.93
2022-09-18T19:08:32.590Z,5.43
2022-09-18T19:11:43.373Z,6.40
2022-09-18T19:14:51.827Z,7.50
2022-09-18T19:18:03.462Z,7.73
2022-09-18T19:21:11.395Z,8.67
2022-09-18T19:24:18.915Z,8.27
2022-09-18T19:27:26.645Z,9.10
2022-09-18T19:30:32.801Z,9.83
2022-09-18T19:33:42.452Z,8.70
2022-09-18T19:36:50.600Z,9.77
2022-09-18T19:39:57.330Z,11.17
2022-09-18T19:43:10.236Z,11.23
2022-09-18T19:46:22.472Z,11.30
2022-09-18T19:49:35.162Z,11.73
2022-09-18T19:52:45.363Z,12.63
2022-09-18T19:55:52.733Z,12.03
2022-09-18T19:58:59.447Z,12.03
2022-09-18T20:02:07.136Z,12.80
2022-09-18T20:05:16.848Z,11.10
2022-09-18T20:08:22.735Z,11.80
2022-09-18T20:11:29.600Z,10.93
2022-09-18T20:14:35.556Z,11.17
2022-09-18T20:17:42.419Z,10.73
2022-09-18T20:20:51.701Z,10.80
2022-09-18T20:24:00.329Z,10.20
2022-09-18T20:27:08.218Z,9.90
2022-09-18T20:30:15.906Z,10.07
2022-09-18T20:33:21.691Z,9.83
2022-09-18T20:36:32.243Z,9.23
2022-09-18T20:39:38.066Z,9.43
2022-09-18T20:42:45.463Z,9.40
2022-09-18T20:45:59.430Z,9.70
2022-09-18T20:49:08.060Z,9.37
2022-09-18T20:52:16.684Z,9.27
2022-09-18T20:55:24.213Z,8.67
2022-09-18T20:58:32.046Z,9.83
2022-09-18T21:01:41.650Z,9.77
2022-09-18T21:04:47.424Z,8.90
2022-09-18T21:08:01.333Z,8.77
2022-09-18T21:11:07.858Z,8.37
2022-09-18T21:14:16.251Z,8.83
2022-09-18T21:17:21.998Z,8.83
2022-09-18T21:20:28.770Z,7.70
2022-09-18T21:23:56.647Z,7.90
2022-09-18T21:27:03.384Z,7.90
2022-09-18T21:30:10.325Z,7.40
2022-09-18T21:33:17.232Z,8.77
2022-09-18T21:36:23.870Z,7.70
2022-09-18T21:39:34.549Z,8.17
2022-09-18T21:42:43.842Z,7.37
2022-09-18T21:45:50.624Z,8.03
2022-09-18T21:48:57.014Z,6.57
2022-09-18T21:52:06.872Z,6.93
2022-09-18T21:55:15.582Z,5.63
2022-09-18T21:58:22.532Z,5.20
2022-09-18T22:01:31.808Z,5.00
2022-09-18T22:04:38.430Z,4.33
2022-09-18T22:07:44.507Z,4.60
2022-09-18T22:10:54.522Z,4.37
2022-09-18T22:14:03.096Z,4.13
2022-09-18T22:17:11.927Z,4.10
2022-09-18T22:20:17.896Z,4.63
2022-09-18T22:23:24.874Z,4.73
2022-09-18T22:26:33.398Z,4.70
2022-09-18T22:29:43.010Z,4.63
2022-09-18T22:32:49.720Z,5.33
2022-09-18T22:35:56.393Z,5.00
2022-09-18T22:39:03.354Z,5.53
2022-09-18T22:42:12.999Z,5.60
2022-09-18T22:45:18.943Z,4.87
2022-09-18T22:48:25.596Z,5.13
2022-09-18T22:51:31.827Z,4.73
2022-09-18T22:54:38.561Z,5.10
2022-09-18T22:57:47.139Z,5.87
2022-09-18T23:00:53.758Z,4.57
2022-09-18T23:04:03.419Z,5.00
2022-09-18T23:07:10.232Z,4.43
2022-09-18T23:10:16.015Z,4.60
2022-09-18T23:13:25.478Z,4.87
2022-09-18T23:16:33.182Z,5.03
2022-09-18T23:19:42.398Z,5.33
2022-09-18T23:22:48.229Z,5.10
2022-09-18T23:25:54.821Z,4.37
2022-09-18T23:29:06.107Z,2.93
2022-09-18T23:32:12.768Z,2.60
2022-09-18T23:35:18.566Z,2.03
2022-09-18T23:38:25.834Z,2.20
2022-09-18T23:41:34.534Z,3.00
2022-09-18T23:44:43.954Z,3.07
2022-09-18T23:47:49.724Z,3.30
2022-09-18T23:50:56.944Z,3.10
2022-09-18T23:54:06.440Z,3.10
2022-09-18T23:57:13.307Z,2.90
